Time;durP1;ratioP1;P1;durP2;ratioP2;P2;SDS_P1;SDS_P2;PMS_P1;PMS_P2;Temp;Humidity;BMP_temperature;BMP_pressure;BME280_temperature;BME280_humidity;BME280_pressure;Samples;Min_cycle;Max_cycle;Signal;HPM_P1;HPM_P2
2023/10/20 00:00:22;;;;;;;36.38;27.38;;;;;;;;;;2074472;28;20545;-57
2023/10/20 00:01:22;;;;;;;38.75;28.20;;;;;;;;;;2074631;28;20368;-58
2023/10/20 00:02:23;;;;;;;35.50;26.40;;;;;;;;;;2074291;28;20046;-58
2023/10/20 00:03:24;;;;;;;38.92;28.92;;;;;;;;;;2074525;28;20077;-58
2023/10/20 00:04:25;;;;;;;40.97;29.92;;;;;;;;;;2074028;28;20525;-57
2023/10/20 00:05:25;;;;;;;34.20;25.08;;;;;;;;;;2074533;28;20026;-58
2023/10/20 00:06:26;;;;;;;36.53;26.65;;;;;;;;;;2074605;28;20065;-58
2023/10/20 00:07:27;;;;;;;33.17;24.42;;;;;;;;;;2074525;28;20072;-57
2023/10/20 00:08:27;;;;;;;34.10;24.38;;;;;;;;;;2074903;28;20053;-58
2023/10/20 00:09:29;;;;;;;31.10;23.05;;;;;;;;;;2074255;28;20057;-58
2023/10/20 00:10:33;;;;;;;34.95;24.75;;;;;;;;;;2074459;28;20046;-58
2023/10/20 00:11:36;;;;;;;33.53;24.00;;;;;;;;;;2073981;28;20046;-58
2023/10/20 00:12:37;;;;;;;33.90;25.33;;;;;;;;;;2074457;28;20394;-57
2023/10/20 00:13:38;;;;;;;33.50;24.55;;;;;;;;;;2074467;28;20042;-58
2023/10/20 00:14:39;;;;;;;36.33;24.48;;;;;;;;;;2074245;28;20053;-58
2023/10/20 00:15:43;;;;;;;31.17;23.42;;;;;;;;;;2074126;28;20398;-57
2023/10/20 00:16:44;;;;;;;35.30;25.25;;;;;;;;;;2074208;28;20042;-58
2023/10/20 00:17:45;;;;;;;34.65;24.77;;;;;;;;;;2074630;28;20359;-58
2023/10/20 00:18:46;;;;;;;32.28;24.02;;;;;;;;;;2074304;28;20041;-58
2023/10/20 00:19:47;;;;;;;34.25;24.65;;;;;;;;;;2073094;28;20406;-58
2023/10/20 00:20:48;;;;;;;32.88;25.50;;;;;;;;;;2073374;28;20041;-57
2023/10/20 00:21:49;;;;;;;30.65;20.80;;;;;;;;;;2073457;28;20046;-58
2023/10/20 00:22:50;;;;;;;32.70;22.88;;;;;;;;;;2074376;28;20045;-57
2023/10/20 00:23:51;;;;;;;35.30;23.77;;;;;;;;;;2074291;28;20385;-57
2023/10/20 00:24:52;;;;;;;28.33;21.17;;;;;;;;;;2074337;28;20038;-58
2023/10/20 00:25:52;;;;;;;29.50;21.20;;;;;;;;;;2074530;28;20037;-57
2023/10/20 00:26:53;;;;;;;30.45;21.80;;;;;;;;;;2074886;28;20038;-57
2023/10/20 00:27:55;;;;;;;29.70;21.23;;;;;;;;;;2074653;28;20106;-57
2023/10/20 00:28:56;;;;;;;31.65;22.08;;;;;;;;;;2075125;28;20038;-57
2023/10/20 00:29:57;;;;;;;33.20;25.20;;;;;;;;;;2075196;28;20053;-58
2023/10/20 00:30:58;;;;;;;29.40;20.27;;;;;;;;;;2074970;28;20576;-61
2023/10/20 00:31:58;;;;;;;36.40;24.58;;;;;;;;;;2075258;28;20042;-57
2023/10/20 00:32:59;;;;;;;33.35;22.33;;;;;;;;;;2074809;28;20072;-58
2023/10/20 00:34:00;;;;;;;32.03;22.42;;;;;;;;;;2073962;28;20509;-57
2023/10/20 00:35:03;;;;;;;27.88;20.02;;;;;;;;;;2066172;28;20051;-60
2023/10/20 00:36:04;;;;;;;30.48;19.23;;;;;;;;;;2066860;28;20043;-58
2023/10/20 00:37:06;;;;;;;29.60;21.05;;;;;;;;;;2066823;28;20122;-58
2023/10/20 00:38:07;;;;;;;28.77;20.75;;;;;;;;;;2067027;28;20034;-57
2023/10/20 00:39:08;;;;;;;29.48;20.90;;;;;;;;;;2074892;28;20125;-57
2023/10/20 00:40:10;;;;;;;30.98;21.80;;;;;;;;;;2075683;28;20049;-57
2023/10/20 00:41:11;;;;;;;29.73;21.98;;;;;;;;;;2075562;28;20057;-61
2023/10/20 00:42:12;;;;;;;30.00;19.95;;;;;;;;;;2074849;28;20044;-65
2023/10/20 00:43:13;;;;;;;30.88;22.88;;;;;;;;;;2065989;28;20041;-57
2023/10/20 00:44:14;;;;;;;30.17;21.70;;;;;;;;;;2065497;28;20501;-57
2023/10/20 00:45:15;;;;;;;31.05;22.75;;;;;;;;;;2073583;28;20060;-58
2023/10/20 00:46:15;;;;;;;31.40;22.25;;;;;;;;;;2073904;28;20489;-58
2023/10/20 00:47:17;;;;;;;35.13;22.52;;;;;;;;;;2074241;28;20049;-58
2023/10/20 00:48:18;;;;;;;30.10;21.15;;;;;;;;;;2073673;28;20496;-58
2023/10/20 00:49:18;;;;;;;32.95;21.65;;;;;;;;;;2073650;28;20054;-58
2023/10/20 00:50:20;;;;;;;30.30;22.00;;;;;;;;;;2073636;28;20425;-58
2023/10/20 00:51:21;;;;;;;35.97;25.05;;;;;;;;;;2057347;28;20043;-57
2023/10/20 00:52:21;;;;;;;32.70;24.45;;;;;;;;;;2057530;28;20026;-58
2023/10/20 00:53:23;;;;;;;34.63;24.13;;;;;;;;;;2064901;28;20061;-58
2023/10/20 00:54:24;;;;;;;35.58;25.65;;;;;;;;;;2073558;28;20033;-58
2023/10/20 00:55:25;;;;;;;34.40;24.38;;;;;;;;;;2073587;28;20045;-58
2023/10/20 00:56:26;;;;;;;32.72;24.20;;;;;;;;;;2073613;28;20426;-58
2023/10/20 00:57:26;;;;;;;35.03;25.17;;;;;;;;;;2057096;28;20039;-58
2023/10/20 00:58:27;;;;;;;30.52;21.67;;;;;;;;;;2056413;28;20054;-58
2023/10/20 00:59:28;;;;;;;32.17;23.83;;;;;;;;;;2073044;28;20045;-57
2023/10/20 01:00:29;;;;;;;31.95;24.75;;;;;;;;;;2074067;28;20041;-57
2023/10/20 01:01:29;;;;;;;31.75;25.20;;;;;;;;;;2074453;28;20034;-57
2023/10/20 01:02:30;;;;;;;34.83;23.23;;;;;;;;;;2073978;28;20069;-58
2023/10/20 01:03:35;;;;;;;29.30;21.13;;;;;;;;;;2074160;28;20462;-58
2023/10/20 01:04:36;;;;;;;34.90;25.60;;;;;;;;;;2073142;28;20417;-58
2023/10/20 01:05:37;;;;;;;32.42;22.25;;;;;;;;;;2073488;28;20050;-57
2023/10/20 01:06:38;;;;;;;35.20;25.63;;;;;;;;;;2073514;28;20037;-58
2023/10/20 01:07:38;;;;;;;33.67;25.33;;;;;;;;;;2073505;28;20049;-58
2023/10/20 01:08:39;;;;;;;32.47;22.60;;;;;;;;;;2073776;28;20046;-58
2023/10/20 01:09:41;;;;;;;34.10;26.08;;;;;;;;;;2074386;28;20033;-58
2023/10/20 01:10:42;;;;;;;34.30;27.20;;;;;;;;;;2073950;28;20383;-58
2023/10/20 01:11:43;;;;;;;38.33;27.13;;;;;;;;;;2072874;28;20054;-58
2023/10/20 01:12:44;;;;;;;32.58;26.25;;;;;;;;;;2073510;28;20036;-57
2023/10/20 01:13:45;;;;;;;34.40;26.63;;;;;;;;;;2074146;28;20077;-58
2023/10/20 01:14:45;;;;;;;34.90;26.15;;;;;;;;;;2073812;28;20033;-58
2023/10/20 01:15:46;;;;;;;37.58;27.13;;;;;;;;;;2072874;28;20046;-58
2023/10/20 01:16:47;;;;;;;34.83;24.65;;;;;;;;;;2073324;28;20141;-58
2023/10/20 01:17:48;;;;;;;32.80;23.60;;;;;;;;;;2072746;28;20192;-58
2023/10/20 01:18:49;;;;;;;33.00;22.23;;;;;;;;;;2073697;28;20038;-58
2023/10/20 01:19:51;;;;;;;33.33;25.13;;;;;;;;;;2074267;28;20366;-58
2023/10/20 01:20:52;;;;;;;34.97;25.42;;;;;;;;;;2073681;28;20038;-58
2023/10/20 01:21:53;;;;;;;36.95;26.63;;;;;;;;;;2073697;28;20034;-57
2023/10/20 01:22:55;;;;;;;33.38;26.15;;;;;;;;;;2065284;28;20426;-58
2023/10/20 01:23:55;;;;;;;34.75;24.65;;;;;;;;;;2073523;28;20033;-58
2023/10/20 01:24:56;;;;;;;35.72;22.10;;;;;;;;;;2073643;28;20046;-57
2023/10/20 01:25:57;;;;;;;32.72;23.23;;;;;;;;;;2073314;28;20046;-58
2023/10/20 01:26:58;;;;;;;37.72;27.90;;;;;;;;;;2073400;28;20125;-58
2023/10/20 01:27:59;;;;;;;37.92;27.23;;;;;;;;;;2073894;28;20049;-58
2023/10/20 01:28:59;;;;;;;36.22;26.35;;;;;;;;;;2073877;28;20084;-58
2023/10/20 01:30:00;;;;;;;39.00;28.20;;;;;;;;;;2073566;28;20066;-58
2023/10/20 01:31:01;;;;;;;39.67;26.52;;;;;;;;;;2073676;28;20069;-58
2023/10/20 01:32:02;;;;;;;37.58;28.58;;;;;;;;;;2073906;28;20065;-57
2023/10/20 01:33:04;;;;;;;35.75;25.52;;;;;;;;;;2073515;28;20057;-58
2023/10/20 01:34:05;;;;;;;33.88;24.60;;;;;;;;;;2073356;28;20470;-58
2023/10/20 01:35:06;;;;;;;35.58;25.48;;;;;;;;;;2072603;28;20049;-58
2023/10/20 01:36:07;;;;;;;34.55;25.08;;;;;;;;;;2072954;28;20458;-58
2023/10/20 01:37:11;;;;;;;33.97;25.95;;;;;;;;;;2073576;28;20049;-58
2023/10/20 01:38:12;;;;;;;32.05;23.40;;;;;;;;;;2072986;28;20049;-58
2023/10/20 01:39:15;;;;;;;33.45;23.70;;;;;;;;;;2073342;28;20029;-58
2023/10/20 01:40:17;;;;;;;36.28;26.35;;;;;;;;;;2073625;28;20108;-58
2023/10/20 01:41:18;;;;;;;35.33;27.05;;;;;;;;;;2073780;28;20487;-58
2023/10/20 01:42:19;;;;;;;34.95;24.50;;;;;;;;;;2073415;28;20046;-57
2023/10/20 01:43:19;;;;;;;38.50;25.55;;;;;;;;;;2073531;28;20045;-58
2023/10/20 01:44:20;;;;;;;35.22;27.55;;;;;;;;;;2073420;28;20057;-57
2023/10/20 01:45:21;;;;;;;36.15;25.60;;;;;;;;;;2073716;28;20054;-57
2023/10/20 01:46:22;;;;;;;37.28;27.63;;;;;;;;;;2073748;28;20038;-57
2023/10/20 01:47:22;;;;;;;36.20;25.23;;;;;;;;;;2073442;28;20053;-57
2023/10/20 01:48:23;;;;;;;33.88;24.05;;;;;;;;;;2073783;28;20041;-58
2023/10/20 01:49:24;;;;;;;37.58;23.83;;;;;;;;;;2073424;28;20038;-57
2023/10/20 01:50:26;;;;;;;41.13;25.67;;;;;;;;;;2072719;28;20462;-57
2023/10/20 01:51:28;;;;;;;35.33;24.88;;;;;;;;;;2072526;28;20136;-57
2023/10/20 01:52:29;;;;;;;41.17;29.52;;;;;;;;;;2073204;28;20049;-58
2023/10/20 01:53:30;;;;;;;36.60;26.55;;;;;;;;;;2073998;28;20034;-57
2023/10/20 01:54:31;;;;;;;33.80;25.17;;;;;;;;;;2073167;28;20465;-58
2023/10/20 01:55:32;;;;;;;38.78;28.52;;;;;;;;;;2073544;28;20371;-58
2023/10/20 01:56:32;;;;;;;41.15;25.25;;;;;;;;;;2072705;28;20042;-58
2023/10/20 01:57:33;;;;;;;37.28;28.77;;;;;;;;;;2065068;28;20420;-58
2023/10/20 01:58:34;;;;;;;42.42;29.73;;;;;;;;;;2064969;28;20106;-58
2023/10/20 01:59:34;;;;;;;40.13;28.45;;;;;;;;;;2064669;28;20046;-58
2023/10/20 02:00:35;;;;;;;36.92;26.73;;;;;;;;;;2064442;28;20395;-58
2023/10/20 02:01:36;;;;;;;34.65;24.73;;;;;;;;;;2072746;28;20053;-58
2023/10/20 02:02:37;;;;;;;34.95;24.77;;;;;;;;;;2074072;28;20030;-58
2023/10/20 02:03:37;;;;;;;42.33;29.13;;;;;;;;;;2073714;28;20029;-57
2023/10/20 02:04:38;;;;;;;41.70;30.88;;;;;;;;;;2073711;28;20057;-58
2023/10/20 02:05:39;;;;;;;40.55;30.42;;;;;;;;;;2073891;28;20030;-58
2023/10/20 02:06:40;;;;;;;41.03;30.92;;;;;;;;;;2073419;28;20053;-58
2023/10/20 02:07:41;;;;;;;40.20;30.40;;;;;;;;;;2073068;28;20050;-58
2023/10/20 02:08:43;;;;;;;45.95;30.27;;;;;;;;;;2073097;28;20037;-58
2023/10/20 02:09:44;;;;;;;41.65;30.35;;;;;;;;;;2073356;28;20469;-58
2023/10/20 02:10:45;;;;;;;44.10;30.50;;;;;;;;;;2073377;28;20049;-58
2023/10/20 02:11:46;;;;;;;41.13;29.05;;;;;;;;;;2073104;28;20061;-58
2023/10/20 02:12:46;;;;;;;40.33;31.30;;;;;;;;;;2065071;28;20042;-60
2023/10/20 02:13:47;;;;;;;42.42;30.50;;;;;;;;;;2072468;28;20037;-57
2023/10/20 02:14:48;;;;;;;42.50;31.33;;;;;;;;;;2073517;28;20049;-58
2023/10/20 02:15:50;;;;;;;41.80;31.25;;;;;;;;;;2073684;28;20058;-58
2023/10/20 02:16:51;;;;;;;42.05;26.88;;;;;;;;;;2073019;28;20460;-57
2023/10/20 02:17:52;;;;;;;37.80;26.95;;;;;;;;;;2064419;28;20057;-58
2023/10/20 02:18:52;;;;;;;43.28;28.35;;;;;;;;;;2064542;28;20050;-57
2023/10/20 02:19:53;;;;;;;40.65;27.90;;;;;;;;;;2064737;28;20034;-58
2023/10/20 02:20:57;;;;;;;43.72;29.38;;;;;;;;;;2064931;28;20047;-58
2023/10/20 02:22:01;;;;;;;44.70;28.27;;;;;;;;;;2065565;28;20030;-58
2023/10/20 02:23:02;;;;;;;42.92;27.65;;;;;;;;;;2073071;28;20045;-58
2023/10/20 02:24:03;;;;;;;41.65;27.63;;;;;;;;;;2072385;28;20433;-58
2023/10/20 02:25:04;;;;;;;42.35;29.45;;;;;;;;;;2073286;28;20502;-58
2023/10/20 02:26:06;;;;;;;48.30;32.92;;;;;;;;;;2072955;28;20494;-58
2023/10/20 02:27:08;;;;;;;40.83;29.63;;;;;;;;;;2073406;28;20053;-58
2023/10/20 02:28:08;;;;;;;41.15;30.73;;;;;;;;;;2073134;28;20056;-58
2023/10/20 02:29:10;;;;;;;44.58;31.70;;;;;;;;;;2073073;28;20049;-57
2023/10/20 02:30:12;;;;;;;44.70;32.38;;;;;;;;;;2073325;28;20068;-57
2023/10/20 02:31:13;;;;;;;47.67;33.95;;;;;;;;;;2074058;28;20446;-57
2023/10/20 02:32:14;;;;;;;49.85;36.95;;;;;;;;;;2073741;28;20034;-58
2023/10/20 02:33:15;;;;;;;48.40;34.72;;;;;;;;;;2072403;28;20038;-58
2023/10/20 02:34:16;;;;;;;43.10;31.42;;;;;;;;;;2072447;28;20061;-58
2023/10/20 02:35:16;;;;;;;43.03;30.73;;;;;;;;;;2073320;28;20061;-58
2023/10/20 02:36:17;;;;;;;40.33;28.83;;;;;;;;;;2072925;28;20044;-58
2023/10/20 02:37:18;;;;;;;41.78;29.38;;;;;;;;;;2073174;28;20034;-58
2023/10/20 02:38:19;;;;;;;45.97;32.55;;;;;;;;;;2072265;28;20494;-58
2023/10/20 02:39:20;;;;;;;47.92;34.95;;;;;;;;;;2064356;28;20050;-58
2023/10/20 02:40:20;;;;;;;45.20;30.55;;;;;;;;;;2073030;28;20038;-57
2023/10/20 02:41:21;;;;;;;46.63;31.58;;;;;;;;;;2073282;28;20042;-58
2023/10/20 02:42:22;;;;;;;40.80;28.52;;;;;;;;;;2073716;28;20064;-58
2023/10/20 02:43:22;;;;;;;42.85;30.02;;;;;;;;;;2073889;28;20049;-58
2023/10/20 02:44:27;;;;;;;47.25;30.27;;;;;;;;;;2074625;28;20045;-58
2023/10/20 02:45:27;;;;;;;48.42;32.47;;;;;;;;;;2074987;28;20040;-58
2023/10/20 02:46:28;;;;;;;43.17;29.80;;;;;;;;;;2074842;28;20042;-57
2023/10/20 02:47:29;;;;;;;43.17;30.80;;;;;;;;;;2073874;28;20410;-58
2023/10/20 02:48:30;;;;;;;51.67;36.70;;;;;;;;;;2074692;28;20050;-58
2023/10/20 02:49:30;;;;;;;46.05;33.28;;;;;;;;;;2074590;28;20050;-58
2023/10/20 02:50:32;;;;;;;46.70;32.03;;;;;;;;;;2075160;28;20038;-58
2023/10/20 02:51:33;;;;;;;48.80;36.15;;;;;;;;;;2074798;28;20062;-58
2023/10/20 02:52:34;;;;;;;51.20;38.85;;;;;;;;;;2074633;28;20046;-58
2023/10/20 02:53:35;;;;;;;51.53;38.03;;;;;;;;;;2074838;28;20046;-58
2023/10/20 02:54:35;;;;;;;47.60;34.70;;;;;;;;;;2075061;28;20038;-58
2023/10/20 02:55:38;;;;;;;48.17;31.13;;;;;;;;;;2074799;28;20050;-58
2023/10/20 02:56:38;;;;;;;48.92;34.80;;;;;;;;;;2074453;28;20033;-58
2023/10/20 02:57:39;;;;;;;51.50;35.70;;;;;;;;;;2073845;28;20053;-58
2023/10/20 02:58:43;;;;;;;45.13;32.55;;;;;;;;;;2073883;28;20480;-58
2023/10/20 02:59:43;;;;;;;45.53;31.88;;;;;;;;;;2066556;28;20045;-57
2023/10/20 03:00:44;;;;;;;52.75;37.85;;;;;;;;;;2073859;28;20042;-58
2023/10/20 03:01:45;;;;;;;49.45;33.13;;;;;;;;;;2074911;28;20046;-58
2023/10/20 03:02:48;;;;;;;53.97;39.60;;;;;;;;;;2074714;28;20390;-58
2023/10/20 03:03:49;;;;;;;52.28;33.65;;;;;;;;;;2074215;28;20045;-58
2023/10/20 03:04:56;;;;;;;48.65;34.70;;;;;;;;;;2073791;28;20131;-58
2023/10/20 03:05:57;;;;;;;49.72;37.92;;;;;;;;;;2073776;28;20046;-58
2023/10/20 03:06:57;;;;;;;51.72;35.45;;;;;;;;;;2074942;28;20038;-58
2023/10/20 03:07:58;;;;;;;44.55;30.92;;;;;;;;;;2074640;28;20061;-58
2023/10/20 03:09:00;;;;;;;52.17;35.10;;;;;;;;;;2073445;28;20442;-58
2023/10/20 03:10:00;;;;;;;44.42;31.00;;;;;;;;;;2074149;28;20058;-58
2023/10/20 03:11:02;;;;;;;48.55;34.80;;;;;;;;;;2074240;28;20042;-58
2023/10/20 03:12:04;;;;;;;53.83;38.70;;;;;;;;;;2073642;28;20050;-58
2023/10/20 03:13:04;;;;;;;51.30;37.58;;;;;;;;;;2074962;28;20366;-58
2023/10/20 03:14:05;;;;;;;45.40;32.55;;;;;;;;;;2074895;28;20042;-58
2023/10/20 03:15:08;;;;;;;46.78;33.20;;;;;;;;;;2074878;28;20378;-58
2023/10/20 03:16:08;;;;;;;50.60;32.45;;;;;;;;;;2073881;28;20053;-58
2023/10/20 03:17:11;;;;;;;50.05;35.67;;;;;;;;;;2066257;28;20462;-57
2023/10/20 03:18:14;;;;;;;46.10;31.40;;;;;;;;;;2057830;28;20094;-58
2023/10/20 03:19:15;;;;;;;47.85;34.35;;;;;;;;;;2065988;28;20399;-58
2023/10/20 03:20:17;;;;;;;46.92;30.80;;;;;;;;;;2073677;28;20088;-58
2023/10/20 03:21:18;;;;;;;50.08;34.70;;;;;;;;;;2073690;28;20050;-58
2023/10/20 03:22:18;;;;;;;50.45;32.28;;;;;;;;;;2075018;28;20371;-57
2023/10/20 03:23:20;;;;;;;47.80;32.03;;;;;;;;;;2074999;28;20038;-58
2023/10/20 03:24:21;;;;;;;52.05;34.05;;;;;;;;;;2074551;28;20046;-58
2023/10/20 03:25:22;;;;;;;49.95;37.72;;;;;;;;;;2074182;28;20045;-57
2023/10/20 03:26:22;;;;;;;52.63;34.45;;;;;;;;;;2073491;28;20080;-58
2023/10/20 03:27:23;;;;;;;49.13;33.05;;;;;;;;;;2074648;28;20383;-58
2023/10/20 03:28:24;;;;;;;50.72;33.22;;;;;;;;;;2074534;28;20533;-58
2023/10/20 03:29:25;;;;;;;46.70;33.00;;;;;;;;;;2074150;28;20132;-58
2023/10/20 03:30:25;;;;;;;50.75;34.60;;;;;;;;;;2073555;28;20049;-58
2023/10/20 03:31:26;;;;;;;48.72;33.00;;;;;;;;;;2074503;28;20096;-57
2023/10/20 03:32:27;;;;;;;53.88;37.58;;;;;;;;;;2073586;28;20073;-58
2023/10/20 03:33:28;;;;;;;54.80;41.50;;;;;;;;;;2074449;28;20041;-58
2023/10/20 03:34:31;;;;;;;51.47;35.90;;;;;;;;;;2074164;28;20398;-58
2023/10/20 03:35:32;;;;;;;52.85;35.13;;;;;;;;;;2074295;28;20038;-58
2023/10/20 03:36:33;;;;;;;50.38;33.30;;;;;;;;;;2073951;28;20072;-58
2023/10/20 03:37:34;;;;;;;52.10;34.42;;;;;;;;;;2074691;28;20057;-58
2023/10/20 03:38:37;;;;;;;56.58;36.20;;;;;;;;;;2074019;28;20052;-58
2023/10/20 03:39:39;;;;;;;52.22;34.45;;;;;;;;;;2074845;28;20041;-57
2023/10/20 03:40:46;;;;;;;51.25;31.42;;;;;;;;;;2074688;28;20069;-58
2023/10/20 03:41:49;;;;;;;54.97;35.15;;;;;;;;;;2074537;28;20038;-58
2023/10/20 03:42:50;;;;;;;50.88;34.70;;;;;;;;;;2074401;28;20050;-58
2023/10/20 03:43:51;;;;;;;53.15;34.55;;;;;;;;;;2074443;28;20495;-58
2023/10/20 03:44:52;;;;;;;51.22;32.83;;;;;;;;;;2074745;28;20029;-58
2023/10/20 03:45:52;;;;;;;58.10;35.28;;;;;;;;;;2074878;28;20359;-58
2023/10/20 03:46:56;;;;;;;52.55;35.67;;;;;;;;;;2074707;28;20545;-58
2023/10/20 03:47:58;;;;;;;52.85;35.88;;;;;;;;;;2074895;28;20056;-58
2023/10/20 03:48:59;;;;;;;54.58;37.78;;;;;;;;;;2073713;28;20053;-57
2023/10/20 03:50:00;;;;;;;52.70;33.10;;;;;;;;;;2073471;28;20081;-58
2023/10/20 03:51:05;;;;;;;51.85;30.13;;;;;;;;;;2074053;28;20061;-58
2023/10/20 03:52:11;;;;;;;55.22;37.47;;;;;;;;;;2074663;28;20045;-58
2023/10/20 03:53:18;;;;;;;52.75;34.60;;;;;;;;;;2074682;28;20037;-58
2023/10/20 03:54:19;;;;;;;53.67;32.85;;;;;;;;;;2074144;28;20072;-57
2023/10/20 03:55:21;;;;;;;54.17;35.55;;;;;;;;;;2074703;28;20037;-58
2023/10/20 03:56:23;;;;;;;56.70;36.25;;;;;;;;;;2074345;28;20050;-58
2023/10/20 03:57:24;;;;;;;50.88;36.90;;;;;;;;;;2073022;28;20068;-57
2023/10/20 03:58:30;;;;;;;53.03;35.17;;;;;;;;;;2073673;28;20050;-57
2023/10/20 03:59:31;;;;;;;49.83;34.80;;;;;;;;;;2074491;28;20034;-58
2023/10/20 04:00:35;;;;;;;52.67;33.67;;;;;;;;;;2074527;28;20038;-56
2023/10/20 04:01:36;;;;;;;52.28;34.10;;;;;;;;;;2073157;28;20050;-58
2023/10/20 04:02:37;;;;;;;55.53;39.58;;;;;;;;;;2073971;28;20398;-58
2023/10/20 04:03:38;;;;;;;58.45;35.78;;;;;;;;;;2074649;28;20488;-57
2023/10/20 04:04:39;;;;;;;51.50;34.03;;;;;;;;;;2073866;28;20053;-57
2023/10/20 04:05:39;;;;;;;58.40;38.92;;;;;;;;;;2074119;28;20033;-58
2023/10/20 04:06:40;;;;;;;53.33;35.10;;;;;;;;;;2073923;28;20477;-57
2023/10/20 04:07:41;;;;;;;55.63;35.80;;;;;;;;;;2074212;28;20042;-58
2023/10/20 04:08:42;;;;;;;55.95;38.28;;;;;;;;;;2074562;28;20034;-58
2023/10/20 04:09:43;;;;;;;51.00;35.60;;;;;;;;;;2074461;28;20049;-58
2023/10/20 04:10:44;;;;;;;53.63;34.42;;;;;;;;;;2074101;28;20049;-58
2023/10/20 04:11:45;;;;;;;53.78;34.13;;;;;;;;;;2073818;28;20490;-58
2023/10/20 04:12:46;;;;;;;51.08;33.53;;;;;;;;;;2074478;28;20049;-57
2023/10/20 04:13:47;;;;;;;52.47;37.10;;;;;;;;;;2074509;28;20034;-57
2023/10/20 04:14:48;;;;;;;50.08;35.05;;;;;;;;;;2074172;28;20041;-58
2023/10/20 04:15:49;;;;;;;50.70;35.53;;;;;;;;;;2074655;28;20030;-58
2023/10/20 04:16:50;;;;;;;56.63;41.55;;;;;;;;;;2074501;28;20046;-57
2023/10/20 04:17:54;;;;;;;61.20;43.15;;;;;;;;;;2074467;28;20060;-58
2023/10/20 04:18:55;;;;;;;52.10;34.60;;;;;;;;;;2074451;28;20068;-57
2023/10/20 04:19:56;;;;;;;51.25;35.38;;;;;;;;;;2074718;28;20374;-58
2023/10/20 04:20:57;;;;;;;48.20;34.50;;;;;;;;;;2074042;28;20053;-58
2023/10/20 04:21:58;;;;;;;51.50;33.25;;;;;;;;;;2074626;28;20476;-58
2023/10/20 04:22:59;;;;;;;52.85;36.67;;;;;;;;;;2074704;28;20030;-58
2023/10/20 04:24:01;;;;;;;56.97;37.40;;;;;;;;;;2074420;28;20454;-57
2023/10/20 04:25:02;;;;;;;54.72;35.75;;;;;;;;;;2074330;28;20073;-57
2023/10/20 04:26:03;;;;;;;53.88;40.42;;;;;;;;;;2073784;28;20053;-57
2023/10/20 04:27:05;;;;;;;54.58;37.53;;;;;;;;;;2074436;28;20038;-58
2023/10/20 04:42:45;;;;;;;53.05;32.05;;;;;;;;;;2073828;28;19920;-58
2023/10/20 04:43:44;;;;;;;53.28;38.28;;;;;;;;;;2073897;28;20051;-58
2023/10/20 04:53:45;;;;;;;54.42;34.50;;;;;;;;;;2057162;28;20162;-57
2023/10/20 05:00:42;;;;;;;54.75;34.80;;;;;;;;;;2069395;28;19917;-58
2023/10/20 05:01:41;;;;;;;52.70;32.70;;;;;;;;;;2066419;28;20045;-58
2023/10/20 05:03:57;;;;;;;53.15;35.40;;;;;;;;;;2074448;28;20038;-57
2023/10/20 05:05:01;;;;;;;56.50;36.88;;;;;;;;;;2074165;28;20034;-58
2023/10/20 05:06:19;;;;;;;57.65;36.38;;;;;;;;;;2073479;28;20049;-57
2023/10/20 05:07:26;;;;;;;53.63;34.63;;;;;;;;;;2073161;28;20053;-59
2023/10/20 05:08:28;;;;;;;52.67;34.70;;;;;;;;;;2073776;28;20037;-57
2023/10/20 05:09:31;;;;;;;55.55;38.72;;;;;;;;;;2073894;28;20050;-58
2023/10/20 05:10:32;;;;;;;55.78;37.05;;;;;;;;;;2074101;28;20038;-57
2023/10/20 05:11:33;;;;;;;63.45;41.33;;;;;;;;;;2074096;28;20053;-57
2023/10/20 05:12:34;;;;;;;55.03;37.15;;;;;;;;;;2073953;28;20025;-58
2023/10/20 05:13:35;;;;;;;55.70;37.47;;;;;;;;;;2073340;28;20065;-57
2023/10/20 05:14:36;;;;;;;55.28;37.75;;;;;;;;;;2074010;28;20363;-58
2023/10/20 05:15:40;;;;;;;58.70;37.38;;;;;;;;;;2073556;28;20050;-58
2023/10/20 05:16:41;;;;;;;54.47;35.58;;;;;;;;;;2073954;28;20050;-58
2023/10/20 05:17:42;;;;;;;55.63;38.60;;;;;;;;;;2074202;28;20025;-58
2023/10/20 05:18:42;;;;;;;56.42;38.53;;;;;;;;;;2073943;28;20434;-58
2023/10/20 05:19:43;;;;;;;55.80;36.10;;;;;;;;;;2074227;28;20435;-58
2023/10/20 05:20:47;;;;;;;59.30;38.97;;;;;;;;;;2073960;28;20477;-58
2023/10/20 05:21:48;;;;;;;56.92;37.55;;;;;;;;;;2074060;28;20471;-58
2023/10/20 05:22:49;;;;;;;56.15;37.38;;;;;;;;;;2073972;28;20042;-58
2023/10/20 05:23:50;;;;;;;54.35;38.88;;;;;;;;;;2074051;28;20462;-58
2023/10/20 05:24:51;;;;;;;58.13;38.05;;;;;;;;;;2073901;28;20050;-58
2023/10/20 05:25:52;;;;;;;61.28;42.22;;;;;;;;;;2074122;28;20390;-58
2023/10/20 05:26:52;;;;;;;61.80;40.50;;;;;;;;;;2073924;28;20038;-58
2023/10/20 05:27:54;;;;;;;60.75;41.90;;;;;;;;;;2074080;28;20037;-57
2023/10/20 05:28:56;;;;;;;58.25;41.03;;;;;;;;;;2073286;28;20402;-57
2023/10/20 05:29:56;;;;;;;57.38;37.72;;;;;;;;;;2073920;28;20505;-58
2023/10/20 05:30:57;;;;;;;57.38;39.65;;;;;;;;;;2073470;28;20041;-57
2023/10/20 05:31:58;;;;;;;59.17;37.95;;;;;;;;;;2073217;28;20041;-57
2023/10/20 05:32:59;;;;;;;56.67;37.55;;;;;;;;;;2073616;28;20398;-58
2023/10/20 05:34:01;;;;;;;56.28;36.17;;;;;;;;;;2073383;28;20053;-57
2023/10/20 05:35:01;;;;;;;60.22;40.00;;;;;;;;;;2073959;28;20033;-57
2023/10/20 05:36:03;;;;;;;58.40;39.40;;;;;;;;;;2073896;28;20038;-57
2023/10/20 05:37:04;;;;;;;54.00;37.83;;;;;;;;;;2073582;28;20053;-57
2023/10/20 05:38:05;;;;;;;56.67;38.85;;;;;;;;;;2073507;28;20042;-57
2023/10/20 05:39:09;;;;;;;60.17;39.58;;;;;;;;;;2073200;28;20398;-57
2023/10/20 05:40:13;;;;;;;60.08;41.75;;;;;;;;;;2073919;28;20474;-57
2023/10/20 05:41:13;;;;;;;61.42;37.10;;;;;;;;;;2073478;28;20042;-58
2023/10/20 05:42:16;;;;;;;54.63;38.08;;;;;;;;;;2073241;28;20077;-58
2023/10/20 05:43:17;;;;;;;61.08;43.83;;;;;;;;;;2073844;28;20041;-58
2023/10/20 05:44:22;;;;;;;58.05;40.08;;;;;;;;;;2073914;28;20462;-57
2023/10/20 05:45:22;;;;;;;58.10;36.85;;;;;;;;;;2073949;28;20516;-58
2023/10/20 05:46:23;;;;;;;57.10;39.53;;;;;;;;;;2073260;28;20115;-58
2023/10/20 05:47:24;;;;;;;63.15;40.40;;;;;;;;;;2073146;28;20474;-58
2023/10/20 05:48:25;;;;;;;57.45;36.83;;;;;;;;;;2073305;28;20418;-58
2023/10/20 05:49:26;;;;;;;55.33;38.38;;;;;;;;;;2073907;28;20062;-58
2023/10/20 05:50:27;;;;;;;59.28;40.17;;;;;;;;;;2073890;28;20034;-58
2023/10/20 05:51:28;;;;;;;56.80;39.45;;;;;;;;;;2073853;28;20033;-58
2023/10/20 05:52:29;;;;;;;56.20;36.17;;;;;;;;;;2073890;28;20493;-58
2023/10/20 05:53:29;;;;;;;57.00;37.35;;;;;;;;;;2073973;28;20038;-58
2023/10/20 05:54:31;;;;;;;59.00;38.35;;;;;;;;;;2073935;28;20086;-58
2023/10/20 05:55:35;;;;;;;56.15;39.67;;;;;;;;;;2073915;28;20038;-57
2023/10/20 05:56:35;;;;;;;60.17;38.20;;;;;;;;;;2073902;28;20042;-57
2023/10/20 05:57:36;;;;;;;58.35;37.13;;;;;;;;;;2073103;28;20045;-57
2023/10/20 05:58:37;;;;;;;64.00;42.80;;;;;;;;;;2073725;28;20026;-57
2023/10/20 05:59:38;;;;;;;59.08;40.65;;;;;;;;;;2073860;28;20038;-57
2023/10/20 06:00:39;;;;;;;59.75;38.92;;;;;;;;;;2073819;28;20409;-57
2023/10/20 06:01:40;;;;;;;58.17;41.15;;;;;;;;;;2073673;28;20042;-57
2023/10/20 06:02:41;;;;;;;62.58;37.03;;;;;;;;;;2073780;28;20469;-57
2023/10/20 06:03:42;;;;;;;68.40;38.88;;;;;;;;;;2072290;28;20079;-57
2023/10/20 06:04:43;;;;;;;57.35;41.15;;;;;;;;;;2072702;28;20049;-57
2023/10/20 06:05:44;;;;;;;57.00;38.47;;;;;;;;;;2073968;28;20466;-58
2023/10/20 06:06:45;;;;;;;60.65;36.53;;;;;;;;;;2073779;28;20026;-58
2023/10/20 06:07:48;;;;;;;57.92;37.35;;;;;;;;;;2073679;28;20478;-58
2023/10/20 06:08:49;;;;;;;60.28;39.45;;;;;;;;;;2073884;28;20030;-57
2023/10/20 06:09:50;;;;;;;64.07;44.78;;;;;;;;;;2073738;28;20389;-58
2023/10/20 06:10:52;;;;;;;63.45;42.40;;;;;;;;;;2073453;28;20042;-57
2023/10/20 06:11:53;;;;;;;57.03;39.60;;;;;;;;;;2073365;28;20049;-58
2023/10/20 06:12:54;;;;;;;60.92;41.72;;;;;;;;;;2073936;28;20048;-57
2023/10/20 06:13:55;;;;;;;59.80;38.08;;;;;;;;;;2073689;28;20026;-58
2023/10/20 06:14:56;;;;;;;57.42;37.70;;;;;;;;;;2073914;28;20037;-57
2023/10/20 06:15:57;;;;;;;57.92;37.42;;;;;;;;;;2073510;28;20038;-57
2023/10/20 06:16:58;;;;;;;63.30;40.90;;;;;;;;;;2074067;28;20064;-58
2023/10/20 06:17:58;;;;;;;56.30;37.92;;;;;;;;;;2075509;28;20040;-58
2023/10/20 06:18:59;;;;;;;61.58;39.75;;;;;;;;;;2075443;28;20030;-58
2023/10/20 06:20:06;;;;;;;58.15;38.42;;;;;;;;;;2075306;28;20038;-58
2023/10/20 06:21:16;;;;;;;61.80;42.60;;;;;;;;;;2074886;28;20038;-58
2023/10/20 06:22:17;;;;;;;58.78;39.85;;;;;;;;;;2074948;28;20041;-58
2023/10/20 06:23:18;;;;;;;60.20;37.25;;;;;;;;;;2075276;28;20037;-57
2023/10/20 06:24:19;;;;;;;59.65;39.72;;;;;;;;;;2075310;28;20052;-57
2023/10/20 06:25:20;;;;;;;57.03;37.40;;;;;;;;;;2075260;28;20034;-58
2023/10/20 06:26:21;;;;;;;61.05;40.35;;;;;;;;;;2075366;28;20030;-57
2023/10/20 06:27:21;;;;;;;56.17;39.13;;;;;;;;;;2075344;28;20041;-57